createdAt,value
2024-02-28T00:02:00.667Z,60.37
2024-02-28T00:05:02.973Z,60.37
2024-02-28T00:08:05.762Z,60.41
2024-02-28T00:11:08.068Z,60.48
2024-02-28T00:14:11.168Z,60.62
2024-02-28T00:17:14.742Z,60.68
2024-02-28T00:24:49.426Z,60.91
2024-02-28T00:27:51.933Z,61.03
2024-02-28T00:30:54.838Z,61.10
2024-02-28T00:33:57.074Z,61.23
2024-02-28T00:36:59.747Z,61.33
2024-02-28T00:40:02.253Z,61.41
2024-02-28T00:43:05.051Z,61.43
2024-02-28T00:46:12.635Z,61.48
2024-02-28T00:49:15.209Z,61.58
2024-02-28T00:52:17.766Z,61.66
2024-02-28T00:55:20.832Z,61.67
2024-02-28T00:58:22.956Z,61.79
2024-02-28T01:01:25.472Z,61.79
2024-02-28T01:04:28.089Z,61.86
2024-02-28T01:07:30.944Z,61.97
2024-02-28T01:10:33.297Z,61.97
2024-02-28T01:13:36.114Z,62.11
2024-02-28T01:16:39.487Z,62.18
2024-02-28T01:19:41.964Z,62.14
2024-02-28T01:22:44.277Z,62.28
2024-02-28T01:25:47.667Z,62.30
2024-02-28T01:28:51.420Z,62.28
2024-02-28T01:31:54.127Z,62.05
2024-02-28T01:34:56.386Z,61.90
2024-02-28T01:37:59.493Z,61.67
2024-02-28T01:41:01.704Z,61.50
2024-02-28T01:44:04.417Z,61.35
2024-02-28T01:47:07.412Z,61.18
2024-02-28T01:50:10.974Z,61.08
2024-02-28T01:53:14.988Z,61.03
2024-02-28T01:56:18.547Z,61.05
2024-02-28T01:59:20.977Z,61.00
2024-02-28T02:02:23.729Z,61.02
2024-02-28T02:05:26.394Z,61.05
2024-02-28T02:08:29.555Z,61.15
2024-02-28T02:11:31.820Z,61.14
2024-02-28T02:14:34.684Z,61.02
2024-02-28T02:17:37.266Z,60.93
2024-02-28T02:20:44.520Z,60.82
2024-02-28T02:23:47.511Z,60.73
2024-02-28T02:26:52.885Z,60.60
2024-02-28T02:29:54.977Z,60.54
2024-02-28T02:32:57.850Z,60.53
2024-02-28T02:36:00.225Z,60.54
2024-02-28T02:39:03.162Z,60.70
2024-02-28T02:42:05.539Z,60.72
2024-02-28T02:45:08.350Z,60.82
2024-02-28T02:48:10.887Z,60.88
2024-02-28T02:51:13.678Z,60.99
2024-02-28T02:54:15.798Z,61.09
2024-02-28T02:57:18.627Z,61.07
2024-02-28T03:00:21.119Z,61.04
2024-02-28T03:03:24.169Z,60.92
2024-02-28T03:06:26.743Z,60.80
2024-02-28T03:09:29.897Z,60.74
2024-02-28T03:12:32.433Z,60.65
2024-02-28T03:15:35.483Z,60.47
2024-02-28T03:18:37.762Z,60.39
2024-02-28T03:21:40.465Z,60.25
2024-02-28T03:24:42.841Z,60.24
2024-02-28T03:27:45.550Z,60.16
2024-02-28T03:30:48.389Z,60.16
2024-02-28T03:33:51.299Z,60.11
2024-02-28T03:36:53.860Z,59.93
2024-02-28T03:39:57.075Z,60.31
2024-02-28T03:43:00.612Z,60.38
2024-02-28T03:46:03.356Z,60.51
2024-02-28T03:49:05.572Z,60.55
2024-02-28T03:52:08.484Z,60.66
2024-02-28T03:55:11.933Z,60.76
2024-02-28T03:58:15.139Z,60.84
2024-02-28T04:01:17.486Z,60.90
2024-02-28T04:04:21.237Z,61.05
2024-02-28T04:07:23.557Z,61.19
2024-02-28T04:10:26.478Z,61.18
2024-02-28T04:13:28.966Z,61.27
2024-02-28T04:16:31.645Z,61.37
2024-02-28T04:19:38.864Z,61.43
2024-02-28T04:22:41.750Z,61.55
2024-02-28T04:25:44.816Z,61.60
2024-02-28T04:28:47.618Z,61.61
2024-02-28T04:31:50.050Z,61.61
2024-02-28T04:34:53.273Z,61.75
2024-02-28T04:37:55.561Z,61.74
2024-02-28T04:40:58.841Z,61.74
2024-02-28T04:44:01.550Z,61.74
2024-02-28T04:47:04.529Z,61.80
2024-02-28T04:50:07.727Z,61.73
2024-02-28T04:53:10.585Z,61.63
2024-02-28T04:56:12.645Z,61.47
2024-02-28T04:59:16.841Z,61.38
2024-02-28T05:02:20.682Z,61.19
2024-02-28T05:05:23.423Z,61.02
2024-02-28T05:08:25.889Z,60.81
2024-02-28T05:11:28.537Z,60.71
2024-02-28T05:14:30.700Z,60.60
2024-02-28T05:17:33.829Z,60.51
2024-02-28T05:20:36.826Z,60.41
2024-02-28T05:23:39.337Z,60.32
2024-02-28T05:26:41.969Z,60.23
2024-02-28T05:29:45.021Z,60.28
2024-02-28T05:32:47.162Z,60.50
2024-02-28T05:35:50.495Z,60.57
2024-02-28T05:38:53.681Z,60.62
2024-02-28T05:41:56.603Z,58.42
2024-02-28T05:44:58.829Z,63.38
2024-02-28T05:48:01.542Z,66.29
2024-02-28T05:51:04.732Z,67.31
2024-02-28T05:54:07.370Z,67.76
2024-02-28T05:57:09.491Z,68.22
2024-02-28T06:00:12.628Z,68.56
2024-02-28T06:03:15.080Z,68.47
2024-02-28T06:06:18.677Z,68.32
2024-02-28T06:09:21.051Z,69.52
2024-02-28T06:12:23.704Z,69.06
2024-02-28T06:15:26.266Z,70.73
2024-02-28T06:18:29.228Z,71.82
2024-02-28T06:21:31.450Z,72.02
2024-02-28T06:24:35.956Z,72.86
2024-02-28T06:27:38.350Z,73.57
2024-02-28T06:30:41.769Z,73.52
2024-02-28T06:33:45.503Z,74.09
2024-02-28T06:36:48.061Z,74.25
2024-02-28T06:39:50.340Z,74.53
2024-02-28T06:42:52.908Z,74.98
2024-02-28T06:45:55.920Z,74.55
2024-02-28T06:48:58.915Z,73.61
2024-02-28T06:52:02.861Z,72.77
2024-02-28T06:55:11.416Z,72.16
2024-02-28T06:58:14.027Z,71.52
2024-02-28T07:01:17.051Z,70.92
2024-02-28T07:04:19.141Z,70.13
2024-02-28T07:07:21.688Z,68.46
2024-02-28T07:10:24.826Z,67.69
2024-02-28T07:13:28.505Z,68.61
2024-02-28T07:16:31.409Z,67.86
2024-02-28T07:19:33.906Z,67.19
2024-02-28T07:22:36.138Z,66.51
2024-02-28T07:25:38.879Z,67.02
2024-02-28T07:28:41.018Z,65.35
2024-02-28T07:31:44.044Z,68.19
2024-02-28T07:34:46.278Z,67.60
2024-02-28T07:37:48.830Z,67.29
2024-02-28T07:40:51.492Z,67.18
2024-02-28T07:43:54.812Z,66.39
2024-02-28T07:46:57.072Z,67.37
2024-02-28T07:49:59.567Z,67.53
2024-02-28T07:53:02.057Z,71.64
2024-02-28T07:56:06.042Z,73.72
2024-02-28T07:59:08.649Z,75.21
2024-02-28T08:02:15.136Z,75.76
2024-02-28T08:05:19.069Z,77.19
2024-02-28T08:08:22.028Z,72.74
2024-02-28T08:11:25.097Z,70.31
2024-02-28T08:14:28.662Z,68.98
2024-02-28T08:17:31.186Z,67.61
2024-02-28T08:20:33.771Z,68.63
2024-02-28T08:23:35.950Z,68.18
2024-02-28T08:26:38.866Z,66.83
2024-02-28T08:29:44.927Z,67.20
2024-02-28T08:32:47.483Z,67.75
2024-02-28T08:35:51.546Z,67.07
2024-02-28T08:38:54.409Z,67.42
2024-02-28T08:41:56.917Z,67.90
2024-02-28T08:45:01.261Z,67.90
2024-02-28T08:48:04.008Z,66.95
2024-02-28T08:51:06.814Z,67.65
2024-02-28T08:54:09.245Z,68.96
2024-02-28T09:01:47.227Z,69.78
2024-02-28T09:04:53.522Z,69.90
2024-02-28T09:07:58.499Z,69.32
2024-02-28T09:11:02.076Z,66.40
2024-02-28T09:14:04.806Z,68.97
2024-02-28T09:17:07.069Z,69.76
2024-02-28T09:20:10.414Z,68.89
2024-02-28T09:23:12.620Z,69.38
2024-02-28T09:26:15.553Z,69.20
2024-02-28T09:29:18.238Z,68.50
2024-02-28T09:32:21.172Z,67.45
2024-02-28T09:35:23.602Z,67.40
2024-02-28T09:38:26.415Z,65.67
2024-02-28T09:41:29.283Z,65.06
2024-02-28T09:44:32.312Z,64.63
2024-02-28T09:47:37.720Z,64.53
2024-02-28T09:50:40.819Z,63.73
2024-02-28T09:53:43.360Z,64.37
2024-02-28T09:56:46.410Z,64.70
2024-02-28T09:59:54.525Z,64.07
2024-02-28T10:02:59.760Z,64.22
2024-02-28T10:06:05.469Z,65.05
2024-02-28T10:09:08.944Z,65.32
2024-02-28T10:12:11.617Z,64.38
2024-02-28T10:15:14.424Z,65.02
2024-02-28T10:18:16.769Z,66.27
2024-02-28T10:21:19.317Z,66.71
2024-02-28T10:24:22.260Z,65.59
2024-02-28T10:27:25.407Z,66.56
2024-02-28T10:30:28.032Z,68.07
2024-02-28T10:33:30.847Z,67.88
2024-02-28T10:36:34.075Z,67.85
2024-02-28T10:39:37.773Z,68.26
2024-02-28T10:42:45.089Z,68.64
2024-02-28T10:46:06.906Z,68.97
2024-02-28T10:49:11.939Z,67.09
2024-02-28T10:52:16.695Z,65.79
2024-02-28T10:55:26.747Z,66.31
2024-02-28T10:58:36.153Z,66.53
2024-02-28T11:01:43.156Z,68.04
2024-02-28T11:04:46.029Z,66.50
2024-02-28T11:07:53.096Z,66.59
2024-02-28T11:11:01.177Z,67.51
2024-02-28T11:14:03.410Z,67.13
2024-02-28T11:17:07.211Z,66.17
2024-02-28T11:20:14.527Z,67.60
2024-02-28T11:23:19.129Z,68.22
2024-02-28T11:26:23.353Z,69.36
2024-02-28T11:29:30.480Z,69.79
2024-02-28T11:32:33.972Z,69.87
2024-02-28T11:35:36.888Z,69.49
2024-02-28T11:38:40.530Z,69.60
2024-02-28T11:41:47.396Z,69.27
2024-02-28T11:45:00.908Z,68.34
2024-02-28T11:48:06.136Z,69.05
2024-02-28T11:51:08.421Z,68.99
2024-02-28T11:54:15.016Z,68.12
2024-02-28T11:57:18.567Z,67.09
2024-02-28T12:00:21.340Z,67.09
2024-02-28T12:03:24.946Z,66.20
2024-02-28T12:06:27.843Z,65.68
2024-02-28T12:09:35.283Z,66.41
2024-02-28T12:12:45.971Z,65.58
2024-02-28T12:15:49.990Z,65.41
2024-02-28T12:18:53.874Z,65.13
2024-02-28T12:26:29.869Z,63.82
2024-02-28T12:29:33.019Z,63.45
2024-02-28T12:37:10.277Z,64.10
2024-02-28T12:40:12.629Z,63.36
2024-02-28T12:43:15.839Z,62.04
2024-02-28T12:46:18.156Z,62.40
2024-02-28T12:49:21.029Z,62.35
2024-02-28T12:52:23.515Z,61.06
2024-02-28T12:55:26.118Z,60.05
2024-02-28T12:58:28.367Z,61.53
2024-02-28T13:01:32.124Z,61.35
2024-02-28T13:04:34.735Z,62.07
2024-02-28T13:07:37.911Z,61.49
2024-02-28T13:10:43.143Z,61.10
2024-02-28T13:13:46.124Z,62.14
2024-02-28T13:16:50.383Z,61.10
2024-02-28T13:19:53.090Z,61.47
2024-02-28T13:22:55.702Z,60.24
2024-02-28T13:25:59.213Z,60.92
2024-02-28T13:29:02.183Z,60.73
2024-02-28T13:32:05.644Z,60.26
2024-02-28T13:35:08.960Z,59.67
2024-02-28T13:38:12.217Z,59.89
2024-02-28T13:41:15.725Z,58.22
2024-02-28T13:44:20.270Z,60.09
2024-02-28T13:47:25.693Z,59.01
2024-02-28T13:50:33.603Z,60.51
2024-02-28T13:53:36.851Z,59.50
2024-02-28T13:56:40.978Z,60.72
2024-02-28T13:59:50.600Z,59.35
2024-02-28T14:02:56.617Z,59.98
2024-02-28T14:05:59.238Z,59.47
2024-02-28T14:09:02.430Z,58.78
2024-02-28T14:12:05.410Z,58.57
2024-02-28T14:15:10.999Z,59.11
2024-02-28T14:18:14.706Z,59.37
2024-02-28T14:21:18.385Z,60.04
2024-02-28T14:24:21.760Z,62.27
2024-02-28T14:27:26.885Z,60.16
2024-02-28T14:30:29.887Z,59.11
2024-02-28T14:33:33.123Z,58.27
2024-02-28T14:36:35.385Z,57.51
2024-02-28T14:39:38.951Z,58.29
2024-02-28T14:42:43.339Z,60.87
2024-02-28T14:45:46.187Z,60.58
2024-02-28T14:48:52.639Z,60.68
2024-02-28T14:51:56.948Z,61.53
2024-02-28T14:54:59.703Z,61.78
2024-02-28T14:58:02.402Z,58.97
2024-02-28T15:01:06.422Z,61.00
2024-02-28T15:04:10.719Z,59.44
2024-02-28T15:07:13.046Z,59.57
2024-02-28T15:10:15.764Z,58.02
2024-02-28T15:13:18.026Z,59.40
2024-02-28T15:16:21.074Z,60.87
2024-02-28T15:19:23.344Z,58.18
2024-02-28T15:22:25.966Z,62.06
2024-02-28T15:25:28.104Z,61.37
2024-02-28T15:28:32.283Z,60.26
2024-02-28T15:31:34.622Z,61.33
2024-02-28T15:34:37.333Z,60.13
2024-02-28T15:37:39.907Z,58.52
2024-02-28T15:40:42.924Z,58.90
2024-02-28T15:43:45.307Z,59.50
2024-02-28T15:46:48.317Z,59.68
2024-02-28T15:49:50.841Z,60.08
2024-02-28T15:52:54.707Z,60.29
2024-02-28T15:55:57.360Z,60.33
2024-02-28T15:59:01.917Z,59.55
2024-02-28T16:02:05.294Z,58.41
2024-02-28T16:05:08.929Z,58.15
2024-02-28T16:08:11.837Z,57.59
2024-02-28T16:15:49.503Z,57.57
2024-02-28T16:18:52.591Z,57.46
2024-02-28T16:21:56.326Z,57.10
2024-02-28T16:24:58.955Z,57.26
2024-02-28T16:28:03.464Z,56.95
2024-02-28T16:31:07.685Z,58.25
2024-02-28T16:34:14.028Z,57.73
2024-02-28T16:37:19.093Z,58.36
2024-02-28T16:40:22.689Z,57.99
2024-02-28T16:43:24.989Z,58.14
2024-02-28T16:46:27.990Z,58.28
2024-02-28T16:49:30.429Z,58.39
2024-02-28T16:52:34.436Z,58.34
2024-02-28T16:55:37.235Z,58.87
2024-02-28T16:58:44.310Z,59.97
2024-02-28T17:01:48.806Z,59.93
2024-02-28T17:04:51.842Z,60.08
2024-02-28T17:07:55.238Z,59.02
2024-02-28T17:10:59.162Z,58.68
2024-02-28T17:14:01.709Z,58.33
2024-02-28T17:17:04.784Z,58.40
2024-02-28T17:20:08.686Z,58.27
2024-02-28T17:23:11.375Z,59.31
2024-02-28T17:26:13.509Z,59.57
2024-02-28T17:29:17.594Z,59.38
2024-02-28T17:32:20.182Z,59.46
2024-02-28T17:35:23.282Z,59.32
2024-02-28T17:38:25.631Z,59.32
2024-02-28T17:41:29.631Z,58.20
2024-02-28T17:44:32.104Z,59.95
2024-02-28T17:47:34.783Z,59.79
2024-02-28T17:50:37.014Z,60.83
2024-02-28T17:53:41.158Z,60.64
2024-02-28T17:56:43.384Z,61.08
2024-02-28T17:59:45.997Z,61.02
2024-02-28T18:02:48.697Z,59.48
2024-02-28T18:05:51.404Z,58.63
2024-02-28T18:08:53.549Z,59.73
2024-02-28T18:11:56.300Z,61.47
2024-02-28T18:14:58.519Z,65.91
2024-02-28T18:18:01.449Z,67.64
2024-02-28T18:25:38.402Z,63.43
2024-02-28T18:28:40.576Z,61.94
2024-02-28T18:31:43.115Z,60.29
2024-02-28T18:34:45.535Z,62.22
2024-02-28T18:37:48.382Z,61.93
2024-02-28T18:40:50.464Z,61.14
2024-02-28T18:43:53.319Z,59.05
2024-02-28T18:46:55.503Z,61.90
2024-02-28T18:49:58.470Z,60.56
2024-02-28T18:53:00.700Z,61.06
2024-02-28T18:56:05.432Z,60.72
2024-02-28T18:59:09.019Z,61.90
2024-02-28T19:02:11.707Z,62.19
2024-02-28T19:05:15.120Z,62.21
2024-02-28T19:08:18.198Z,62.83
2024-02-28T19:11:21.470Z,62.23
2024-02-28T19:14:24.149Z,62.83
2024-02-28T19:17:26.761Z,61.10
2024-02-28T19:20:29.808Z,64.52
2024-02-28T19:23:32.422Z,62.70
2024-02-28T19:26:35.369Z,63.35
2024-02-28T19:29:37.681Z,63.03
2024-02-28T19:32:42.131Z,61.21
2024-02-28T19:35:45.553Z,62.75
2024-02-28T19:38:49.117Z,63.96
2024-02-28T19:41:51.178Z,62.68
2024-02-28T19:44:53.635Z,63.27
2024-02-28T19:47:56.543Z,63.16
2024-02-28T19:50:59.283Z,63.20
2024-02-28T19:54:02.604Z,63.41
2024-02-28T19:57:05.577Z,63.53
2024-02-28T20:00:11.352Z,63.16
2024-02-28T20:03:14.147Z,63.27
2024-02-28T20:06:16.450Z,61.87
2024-02-28T20:09:19.151Z,64.04
2024-02-28T20:12:22.012Z,64.25
2024-02-28T20:15:26.774Z,63.56
2024-02-28T20:23:00.622Z,65.52
2024-02-28T20:26:04.817Z,65.42
2024-02-28T20:29:09.022Z,63.09
2024-02-28T20:32:11.358Z,65.41
2024-02-28T20:35:14.055Z,64.52
2024-02-28T20:38:17.644Z,65.23
2024-02-28T20:41:20.507Z,65.32
2024-02-28T20:44:23.720Z,64.17
2024-02-28T20:47:26.522Z,63.99
2024-02-28T20:50:30.512Z,64.09
2024-02-28T20:53:35.124Z,64.93
2024-02-28T20:56:40.423Z,65.40
2024-02-28T20:59:43.213Z,64.69
2024-02-28T21:02:45.842Z,65.58
2024-02-28T21:05:50.253Z,64.29
2024-02-28T21:08:53.694Z,65.07
2024-02-28T21:12:06.663Z,65.55
2024-02-28T21:15:09.494Z,65.06
2024-02-28T21:18:12.212Z,64.32
2024-02-28T21:21:14.458Z,63.36
2024-02-28T21:24:18.046Z,64.17
2024-02-28T21:27:20.629Z,65.22
2024-02-28T21:30:23.311Z,65.88
2024-02-28T21:33:25.453Z,65.18
2024-02-28T21:36:28.595Z,64.69
2024-02-28T21:39:33.574Z,67.14
2024-02-28T21:42:36.449Z,66.78
2024-02-28T21:45:38.821Z,67.12
2024-02-28T21:48:41.618Z,65.03
2024-02-28T21:51:43.909Z,65.69
2024-02-28T21:54:46.584Z,65.67
2024-02-28T21:57:48.776Z,64.95
2024-02-28T22:00:51.801Z,65.38
2024-02-28T22:03:54.191Z,66.18
2024-02-28T22:06:57.699Z,66.35
2024-02-28T22:09:59.946Z,66.28
2024-02-28T22:13:03.101Z,66.15
2024-02-28T22:16:05.983Z,64.83
2024-02-28T22:19:09.923Z,66.59
2024-02-28T22:22:13.126Z,64.46
2024-02-28T22:25:16.350Z,64.96
2024-02-28T22:28:18.500Z,62.97
2024-02-28T22:31:21.202Z,64.43
2024-02-28T22:34:23.793Z,63.54
2024-02-28T22:37:26.387Z,65.58
2024-02-28T22:40:28.766Z,65.42
2024-02-28T22:43:31.613Z,64.16
2024-02-28T22:46:33.836Z,65.02
2024-02-28T22:49:36.819Z,65.22
2024-02-28T22:52:38.944Z,64.22
2024-02-28T22:55:42.574Z,64.22
2024-02-28T22:58:44.879Z,65.50
2024-02-28T23:01:49.532Z,66.11
2024-02-28T23:04:51.960Z,65.63
2024-02-28T23:07:55.420Z,63.96
2024-02-28T23:10:57.618Z,63.18
2024-02-28T23:14:00.077Z,64.43
2024-02-28T23:17:02.344Z,63.45
2024-02-28T23:20:06.856Z,63.30
2024-02-28T23:23:11.267Z,64.26
2024-02-28T23:26:13.825Z,64.75
2024-02-28T23:29:16.481Z,65.79
2024-02-28T23:32:19.095Z,66.53
2024-02-28T23:35:21.819Z,64.40
2024-02-28T23:38:25.129Z,65.79
2024-02-28T23:41:29.994Z,64.61
2024-02-28T23:44:32.904Z,65.71
2024-02-28T23:47:35.408Z,64.32
2024-02-28T23:50:38.317Z,65.68
2024-02-28T23:53:40.469Z,66.03
2024-02-28T23:56:43.287Z,67.29
2024-02-28T23:59:45.570Z,68.61
